Bowerman Airport
KHQM : now visible

Aeroporto :











RITROVATECI SU...

 
LOGIN :

Iscrizione | Disclaimer

   EN    FR    IT 

 









Sommario :    VFR   VFR Marginale   IFR   IFR Intensivo   IFR Molto Intensivo
Visibilità : 
Base nubi : 
>= 8 km
>= 3000ft
5 / 8 km
1000 / 3000 ft
1500m / 5 km
500 / 1000 ft
800 / 1500m
200 / 500 ft
< 800m
< 200 ft
Simboli :   Temporali  Nebbia  Neve Forte  Precipitazioni Forti  Vento > 20 kt






- Altitudine del aeroporto : 18 ft


KHQM - Bowerman

ULTIMO METAR :
  • 200953Z AUTO 11008KT 10SM CLR 03/00 A3020 RMK AO2 SLP230 T00330000

METARs OBSOLETI :
  • 200853Z AUTO 10008KT 10SM CLR 03/00 A3020 RMK AO2 SLP230 T00330000 53002
  • 200753Z AUTO 10011KT 10SM CLR 04/00 A3020 RMK AO2 SLP229 T00390000 401220011

TAF KHQM
Valido dal 20 a 06 ore il 21 a 06 ore UTC


200520Z 2006/2106 08008KT P6SM SKC
FM202100 13010KT P6SM FEW250



MetMap, La meteo Aeronautica in un colpo d'occhio ! - Copyright ORBIFLY Dicembre 2007 - Disclaimer

ORBIFLY MET'MAP TEAM :

Programmazione e sviluppo : Alexandra Zaïnal
Concezione : Baudouin d'Aumeries
Aiuto per la programmazione : Marc-Olivier Méhu
Supporto tecnico e logistico : Manuel Goepfert
Aiuto per la traduzione : Arnaldo La Scala

Contatto : metmap@orbifly.com




FONTI E CREDITI :

   NOAA       Earth
Advisory